createdAt,value
2017-11-01T00:00:51.110Z,21
2017-11-01T00:01:52.562Z,21
2017-11-01T00:02:54.037Z,21
2017-11-01T00:03:56.197Z,21.1
2017-11-01T00:04:58.360Z,21
2017-11-01T00:06:00.180Z,21
2017-11-01T00:07:01.983Z,21
2017-11-01T00:08:04.141Z,21
2017-11-01T00:09:05.938Z,20.9
2017-11-01T00:10:08.100Z,21
2017-11-01T00:11:09.555Z,21
2017-11-01T00:12:11.376Z,21
2017-11-01T00:13:13.174Z,20.9
2017-11-01T00:14:14.647Z,20.9
2017-11-01T00:15:16.463Z,21
2017-11-01T00:16:18.285Z,21
2017-11-01T00:17:19.411Z,21
2017-11-01T00:18:21.571Z,21
2017-11-01T00:19:23.735Z,21
2017-11-01T00:20:25.551Z,21
2017-11-01T00:21:27.712Z,21
2017-11-01T00:22:28.821Z,21
2017-11-01T00:23:30.637Z,21
2017-11-01T00:24:32.114Z,21
2017-11-01T00:25:34.276Z,21
2017-11-01T00:26:36.451Z,20.9
2017-11-01T00:27:38.252Z,20.9
2017-11-01T00:28:40.416Z,21
2017-11-01T00:29:42.237Z,20.9
2017-11-01T00:30:44.394Z,20.9
2017-11-01T00:31:46.557Z,21
2017-11-01T00:32:48.379Z,20.9
2017-11-01T00:33:49.854Z,20.9
2017-11-01T00:34:52.044Z,21
2017-11-01T00:35:53.868Z,20.9
2017-11-01T00:36:55.342Z,20.9
2017-11-01T00:37:56.821Z,21
2017-11-01T00:38:58.640Z,21
2017-11-01T00:40:00.458Z,20.9
2017-11-01T00:41:01.567Z,20.9
2017-11-01T00:42:03.024Z,20.9
2017-11-01T00:43:05.186Z,20.9
2017-11-01T00:44:06.661Z,20.9
2017-11-01T00:45:08.135Z,20.9
2017-11-01T00:46:09.932Z,20.9
2017-11-01T00:47:12.093Z,21
2017-11-01T00:48:13.911Z,20.9
2017-11-01T00:49:15.413Z,20.9
2017-11-01T00:50:17.230Z,20.9
2017-11-01T00:51:19.045Z,20.9
2017-11-01T00:52:21.208Z,20.9
2017-11-01T00:53:23.370Z,20.9
2017-11-01T00:54:24.843Z,20.9
2017-11-01T00:55:27.006Z,20.9
2017-11-01T00:56:28.478Z,20.9
2017-11-01T00:57:29.608Z,20.9
2017-11-01T00:58:31.452Z,21
2017-11-01T00:59:33.264Z,20.9
2017-11-01T01:00:35.085Z,20.9
2017-11-01T01:01:36.536Z,20.9
2017-11-01T01:02:37.652Z,21
2017-11-01T01:03:39.864Z,20.9
2017-11-01T01:04:41.679Z,21
2017-11-01T01:05:43.161Z,20.9
2017-11-01T01:06:44.969Z,21
2017-11-01T01:07:47.123Z,20.9
2017-11-01T01:08:48.636Z,21
2017-11-01T01:09:50.457Z,20.9
2017-11-01T01:10:52.271Z,21
2017-11-01T01:11:54.432Z,20.9
2017-11-01T01:12:55.927Z,21
2017-11-01T01:13:58.100Z,20.9
2017-11-01T01:14:59.911Z,21
2017-11-01T01:16:01.393Z,20.9
2017-11-01T01:17:03.215Z,20.9
2017-11-01T01:18:05.375Z,20.9
2017-11-01T01:19:06.831Z,20.9
2017-11-01T01:20:08.995Z,21
2017-11-01T01:21:11.156Z,20.9
2017-11-01T01:22:12.952Z,20.9
2017-11-01T01:23:14.070Z,20.9
2017-11-01T01:24:16.230Z,21
2017-11-01T01:25:18.030Z,20.9
2017-11-01T01:26:20.191Z,21
2017-11-01T01:27:22.354Z,21
2017-11-01T01:28:23.812Z,20.9
2017-11-01T01:29:25.631Z,20.9
2017-11-01T01:30:27.444Z,21
2017-11-01T01:31:29.261Z,20.9
2017-11-01T01:32:30.715Z,20.9
2017-11-01T01:33:32.528Z,21
2017-11-01T01:34:34.690Z,20.9
2017-11-01T01:35:36.164Z,20.9
2017-11-01T01:36:37.640Z,20.9
2017-11-01T01:37:39.463Z,20.9
2017-11-01T01:38:41.617Z,21
2017-11-01T01:39:43.092Z,20.9
2017-11-01T01:40:45.252Z,20.9
2017-11-01T01:41:47.069Z,20.9
2017-11-01T01:42:49.230Z,21
2017-11-01T01:43:51.076Z,20.9
2017-11-01T01:44:53.223Z,20.9
2017-11-01T01:45:55.386Z,20.9
2017-11-01T01:46:57.230Z,20.9
2017-11-01T01:47:59.014Z,20.9
2017-11-01T01:49:00.861Z,20.9
2017-11-01T01:50:02.305Z,20.9
2017-11-01T01:51:03.754Z,20.9
2017-11-01T01:52:05.557Z,20.9
2017-11-01T01:53:07.353Z,20.9
2017-11-01T01:54:09.518Z,20.9
2017-11-01T01:55:11.314Z,20.9
2017-11-01T01:56:13.484Z,20.9
2017-11-01T01:57:15.646Z,20.9
2017-11-01T01:58:17.443Z,20.9
2017-11-01T01:59:19.260Z,21
2017-11-01T02:00:21.420Z,20.9
2017-11-01T02:01:22.892Z,20.9
2017-11-01T02:02:25.061Z,20.9
2017-11-01T02:03:27.224Z,20.9
2017-11-01T02:04:29.042Z,20.9
2017-11-01T02:05:31.200Z,20.9
2017-11-01T02:06:33.020Z,21
2017-11-01T02:07:35.182Z,21
2017-11-01T02:08:37.343Z,20.9
2017-11-01T02:09:38.793Z,20.9
2017-11-01T02:10:40.626Z,20.9
2017-11-01T02:11:42.443Z,20.9
2017-11-01T02:12:43.549Z,20.9
2017-11-01T02:13:45.354Z,20.8
2017-11-01T02:14:47.517Z,20.9
2017-11-01T02:15:49.335Z,20.9
2017-11-01T02:16:50.788Z,20.9
2017-11-01T02:17:52.239Z,20.9
2017-11-01T02:18:54.400Z,20.9
2017-11-01T02:19:56.227Z,20.9
2017-11-01T02:20:58.379Z,20.9
2017-11-01T02:22:00.211Z,20.9
2017-11-01T02:23:01.686Z,20.9
2017-11-01T02:24:03.161Z,20.8
2017-11-01T02:25:04.977Z,20.9
2017-11-01T02:26:06.449Z,20.9
2017-11-01T02:27:07.213Z,20.8
2017-11-01T02:28:09.030Z,20.9
2017-11-01T02:29:10.850Z,20.9
2017-11-01T02:30:11.960Z,20.8
2017-11-01T02:31:13.431Z,20.9
2017-11-01T02:32:15.595Z,20.9
2017-11-01T02:33:17.412Z,20.9
2017-11-01T02:34:19.573Z,20.9
2017-11-01T02:35:21.392Z,20.8
2017-11-01T02:36:22.841Z,20.9
2017-11-01T02:37:25.007Z,20.8
2017-11-01T02:38:27.179Z,20.9
2017-11-01T02:39:29.009Z,20.8
2017-11-01T02:40:30.448Z,20.9
2017-11-01T02:41:32.266Z,20.9
2017-11-01T02:42:34.063Z,20.8
2017-11-01T02:43:35.879Z,20.8
2017-11-01T02:44:38.056Z,20.8
2017-11-01T02:45:39.857Z,20.8
2017-11-01T02:46:42.021Z,20.9
2017-11-01T02:47:43.842Z,20.8
2017-11-01T02:48:45.656Z,20.7
2017-11-01T02:49:47.833Z,20.8
2017-11-01T02:50:49.615Z,20.9
2017-11-01T02:51:51.778Z,20.8
2017-11-01T02:52:53.227Z,20.8
2017-11-01T02:53:54.701Z,20.8
2017-11-01T02:54:56.519Z,20.9
2017-11-01T02:55:58.341Z,20.9
2017-11-01T02:57:00.497Z,20.8
2017-11-01T02:58:02.677Z,20.9
2017-11-01T02:59:04.852Z,20.8
2017-11-01T03:00:07.043Z,20.8
2017-11-01T03:01:09.198Z,20.8
2017-11-01T03:02:11.019Z,20.9
2017-11-01T03:03:13.183Z,20.8
2017-11-01T03:04:15.343Z,20.8
2017-11-01T03:05:17.507Z,20.8
2017-11-01T03:06:19.326Z,20.8
2017-11-01T03:07:21.119Z,20.8
2017-11-01T03:08:23.281Z,20.8
2017-11-01T03:09:25.098Z,20.9
2017-11-01T03:10:26.914Z,20.8
2017-11-01T03:11:28.386Z,20.8
2017-11-01T03:12:30.549Z,20.8
2017-11-01T03:13:31.659Z,20.8
2017-11-01T03:14:33.819Z,20.8
2017-11-01T03:15:35.616Z,20.8
2017-11-01T03:16:37.090Z,20.8
2017-11-01T03:17:38.564Z,20.8
2017-11-01T03:18:40.362Z,20.8
2017-11-01T03:19:42.181Z,20.9
2017-11-01T03:20:44.003Z,20.8
2017-11-01T03:21:45.822Z,20.9
2017-11-01T03:22:47.304Z,20.9
2017-11-01T03:23:49.460Z,20.8
2017-11-01T03:24:50.567Z,20.8
2017-11-01T03:25:52.062Z,20.8
2017-11-01T03:26:53.876Z,20.9
2017-11-01T03:27:55.693Z,20.8
2017-11-01T03:28:57.857Z,20.8
2017-11-01T03:29:59.672Z,20.8
2017-11-01T03:31:01.126Z,20.8
2017-11-01T03:32:02.951Z,20.7
2017-11-01T03:33:04.059Z,20.9
2017-11-01T03:34:05.509Z,20.8
2017-11-01T03:35:07.327Z,20.8
2017-11-01T03:36:09.144Z,20.8
2017-11-01T03:37:10.962Z,20.8
2017-11-01T03:38:12.780Z,20.8
2017-11-01T03:39:14.600Z,20.9
2017-11-01T03:40:15.721Z,20.8
2017-11-01T03:41:17.882Z,20.8
2017-11-01T03:42:19.336Z,20.8
2017-11-01T03:43:21.152Z,20.8
2017-11-01T03:44:23.314Z,20.8
2017-11-01T03:45:25.475Z,20.7
2017-11-01T03:46:27.275Z,20.8
2017-11-01T03:47:29.088Z,20.8
2017-11-01T03:48:30.542Z,20.9
2017-11-01T03:49:32.702Z,20.8
2017-11-01T03:50:34.519Z,20.8
2017-11-01T03:51:35.972Z,20.8
2017-11-01T03:52:37.447Z,20.8
2017-11-01T03:53:38.895Z,20.8
2017-11-01T03:54:40.367Z,20.8
2017-11-01T03:55:42.163Z,20.8
2017-11-01T03:56:44.345Z,20.8
2017-11-01T03:57:46.162Z,20.9
2017-11-01T03:58:47.995Z,20.8
2017-11-01T03:59:49.436Z,20.8
2017-11-01T04:00:51.597Z,20.8
2017-11-01T04:01:53.394Z,20.8
2017-11-01T04:02:55.210Z,20.8
2017-11-01T04:03:57.028Z,20.8
2017-11-01T04:04:58.847Z,20.8
2017-11-01T04:06:00.640Z,20.8
2017-11-01T04:07:02.136Z,20.8
2017-11-01T04:08:03.612Z,20.8
2017-11-01T04:09:05.428Z,20.8
2017-11-01T04:10:07.589Z,20.8
2017-11-01T04:11:09.042Z,20.8
2017-11-01T04:12:10.859Z,20.8
2017-11-01T04:13:11.969Z,20.7
2017-11-01T04:14:13.442Z,20.8
2017-11-01T04:15:14.900Z,20.8
2017-11-01T04:16:17.062Z,20.8
2017-11-01T04:17:18.534Z,20.8
2017-11-01T04:18:20.007Z,20.8
2017-11-01T04:19:21.479Z,20.8
2017-11-01T04:20:22.935Z,20.8
2017-11-01T04:21:24.752Z,20.8
2017-11-01T04:22:26.914Z,20.7
2017-11-01T04:23:29.074Z,20.8
2017-11-01T04:24:30.527Z,20.8
2017-11-01T04:25:32.687Z,20.8
2017-11-01T04:26:34.848Z,20.8
2017-11-01T04:27:36.321Z,20.8
2017-11-01T04:28:38.117Z,20.8
2017-11-01T04:29:39.588Z,20.7
2017-11-01T04:30:41.750Z,20.8
2017-11-01T04:31:43.570Z,20.7
2017-11-01T04:32:45.387Z,20.7
2017-11-01T04:33:46.875Z,20.8
2017-11-01T04:34:49.048Z,20.8
2017-11-01T04:35:50.864Z,20.7
2017-11-01T04:36:53.026Z,20.8
2017-11-01T04:37:54.844Z,20.7
2017-11-01T04:38:57.007Z,20.8
2017-11-01T04:39:59.165Z,20.8
2017-11-01T04:41:00.984Z,20.8
2017-11-01T04:42:03.149Z,20.8
2017-11-01T04:43:04.621Z,20.7
2017-11-01T04:44:06.782Z,20.7
2017-11-01T04:45:07.924Z,20.8
2017-11-01T04:46:09.026Z,20.7
2017-11-01T04:47:10.843Z,20.8
2017-11-01T04:48:12.661Z,20.8
2017-11-01T04:49:14.822Z,20.8
2017-11-01T04:50:16.307Z,20.8
2017-11-01T04:51:18.124Z,20.7
2017-11-01T04:52:19.920Z,20.8
2017-11-01T04:53:21.397Z,20.7
2017-11-01T04:54:22.848Z,20.8
2017-11-01T04:55:24.300Z,20.8
2017-11-01T04:56:25.758Z,20.7
2017-11-01T04:57:27.919Z,20.7
2017-11-01T04:58:30.078Z,20.7
2017-11-01T04:59:32.240Z,20.8
2017-11-01T05:00:34.056Z,20.7
2017-11-01T05:01:35.508Z,20.7
2017-11-01T05:02:36.615Z,20.7
2017-11-01T05:03:38.778Z,20.7
2017-11-01T05:04:40.939Z,20.7
2017-11-01T05:05:42.734Z,20.7
2017-11-01T05:06:44.186Z,20.8
2017-11-01T05:07:46.350Z,20.7
2017-11-01T05:08:48.508Z,20.8
2017-11-01T05:09:50.669Z,20.7
2017-11-01T05:10:52.514Z,20.7
2017-11-01T05:11:54.678Z,20.7
2017-11-01T05:12:56.494Z,20.7
2017-11-01T05:13:58.664Z,20.8
2017-11-01T05:15:00.116Z,20.8
2017-11-01T05:16:01.593Z,20.6
2017-11-01T05:17:03.405Z,20.7
2017-11-01T05:18:05.567Z,20.7
2017-11-01T05:19:07.041Z,20.7
2017-11-01T05:20:08.859Z,20.6
2017-11-01T05:21:09.968Z,20.6
2017-11-01T05:22:11.446Z,20.7
2017-11-01T05:23:12.898Z,20.7
2017-11-01T05:24:15.059Z,20.6
2017-11-01T05:25:16.899Z,20.6
2017-11-01T05:26:19.061Z,20.6
2017-11-01T05:27:20.881Z,20.7
2017-11-01T05:28:23.039Z,20.7
2017-11-01T05:29:24.865Z,20.7
2017-11-01T05:30:26.671Z,20.6
2017-11-01T05:31:28.489Z,20.7
2017-11-01T05:32:29.941Z,20.7
2017-11-01T05:33:31.759Z,20.6
2017-11-01T05:34:33.918Z,20.6
2017-11-01T05:35:35.713Z,20.7
2017-11-01T05:36:37.546Z,20.7
2017-11-01T05:37:39.708Z,20.6
2017-11-01T05:38:41.541Z,20.6
2017-11-01T05:39:43.327Z,20.6
2017-11-01T05:40:45.143Z,20.6
2017-11-01T05:41:46.250Z,20.7
2017-11-01T05:42:48.415Z,20.7
2017-11-01T05:43:49.872Z,20.6
2017-11-01T05:44:52.034Z,20.6
2017-11-01T05:45:53.850Z,20.6
2017-11-01T05:46:56.026Z,20.7
2017-11-01T05:47:58.189Z,20.7
2017-11-01T05:48:59.985Z,20.7
2017-11-01T05:50:01.445Z,20.6
2017-11-01T05:51:03.236Z,20.6
2017-11-01T05:52:05.398Z,20.6
2017-11-01T05:53:07.218Z,20.6
2017-11-01T05:54:09.035Z,20.7
2017-11-01T05:55:10.509Z,20.6
2017-11-01T05:56:12.672Z,20.6
2017-11-01T05:57:14.831Z,20.6
2017-11-01T05:58:16.995Z,20.7
2017-11-01T05:59:19.155Z,20.6
2017-11-01T06:00:20.973Z,20.7
2017-11-01T06:01:22.790Z,20.7
2017-11-01T06:02:24.606Z,20.6
2017-11-01T06:03:26.767Z,20.7
2017-11-01T06:04:28.221Z,20.7
2017-11-01T06:05:30.043Z,20.6
2017-11-01T06:06:31.839Z,20.6
2017-11-01T06:07:34.000Z,20.7
2017-11-01T06:08:35.453Z,20.7
2017-11-01T06:09:37.270Z,20.6
2017-11-01T06:10:39.088Z,20.6
2017-11-01T06:11:41.246Z,20.6
2017-11-01T06:12:43.415Z,20.7
2017-11-01T06:13:45.232Z,20.6
2017-11-01T06:14:47.054Z,20.6
2017-11-01T06:15:49.218Z,20.6
2017-11-01T06:16:51.017Z,20.6
2017-11-01T06:17:52.837Z,20.7
2017-11-01T06:18:54.658Z,20.7
2017-11-01T06:19:56.111Z,20.6
2017-11-01T06:20:57.909Z,20.7
2017-11-01T06:21:59.734Z,20.7
2017-11-01T06:23:01.191Z,20.6
2017-11-01T06:24:03.005Z,20.7
2017-11-01T06:25:04.822Z,20.6
2017-11-01T06:26:06.623Z,20.7
2017-11-01T06:27:08.785Z,20.7
2017-11-01T06:28:10.606Z,20.6
2017-11-01T06:29:12.767Z,20.7
2017-11-01T06:30:14.585Z,20.7
2017-11-01T06:31:16.748Z,20.7
2017-11-01T06:32:18.570Z,20.7
2017-11-01T06:33:20.389Z,20.7
2017-11-01T06:34:21.845Z,20.7
2017-11-01T06:35:23.640Z,20.6
2017-11-01T06:36:25.802Z,20.7
2017-11-01T06:37:27.260Z,20.6
2017-11-01T06:38:29.471Z,20.7
2017-11-01T06:39:30.582Z,20.6
2017-11-01T06:40:32.743Z,20.7
2017-11-01T06:41:34.200Z,20.7
2017-11-01T06:42:36.017Z,20.7
2017-11-01T06:43:38.291Z,20.7
2017-11-01T06:44:40.448Z,20.7
2017-11-01T06:45:42.612Z,20.7
2017-11-01T06:46:44.407Z,20.7
2017-11-01T06:47:45.538Z,20.6
2017-11-01T06:48:47.357Z,20.6
2017-11-01T06:49:49.525Z,20.7
2017-11-01T06:50:50.974Z,20.7
2017-11-01T06:51:53.143Z,20.8
2017-11-01T06:52:54.256Z,20.7
2017-11-01T06:53:56.168Z,20.7
2017-11-01T06:54:57.619Z,20.8
2017-11-01T06:55:59.786Z,20.7
2017-11-01T06:57:01.584Z,20.7
2017-11-01T06:58:03.056Z,20.7
2017-11-01T06:59:04.851Z,20.7
2017-11-01T07:00:06.648Z,20.7
2017-11-01T07:01:08.468Z,20.7
2017-11-01T07:02:10.636Z,20.8
2017-11-01T07:03:12.106Z,20.7
2017-11-01T07:04:14.267Z,20.7
2017-11-01T07:05:16.430Z,20.7
2017-11-01T07:06:18.590Z,20.7
2017-11-01T07:07:20.749Z,20.6
2017-11-01T07:08:21.897Z,20.7
2017-11-01T07:09:23.723Z,20.8
2017-11-01T07:10:25.196Z,20.7
2017-11-01T07:11:27.010Z,20.7
2017-11-01T07:12:28.468Z,20.7
2017-11-01T07:13:30.281Z,20.7
2017-11-01T07:14:32.440Z,20.7
2017-11-01T07:15:34.601Z,20.8
2017-11-01T07:16:36.763Z,20.7
2017-11-01T07:17:38.585Z,20.8
2017-11-01T07:18:40.747Z,20.7
2017-11-01T07:19:42.910Z,20.7
2017-11-01T07:20:45.077Z,20.7
2017-11-01T07:21:46.547Z,20.7
2017-11-01T07:22:48.710Z,20.7
2017-11-01T07:23:50.525Z,20.7
2017-11-01T07:24:51.636Z,20.7
2017-11-01T07:25:53.094Z,20.7
2017-11-01T07:26:55.254Z,20.7
2017-11-01T07:27:57.084Z,20.7
2017-11-01T07:28:58.905Z,20.7
2017-11-01T07:30:00.383Z,20.7
2017-11-01T07:31:02.549Z,20.8
2017-11-01T07:32:04.370Z,20.8
2017-11-01T07:33:06.530Z,20.8
2017-11-01T07:34:08.689Z,20.7
2017-11-01T07:35:10.850Z,20.7
2017-11-01T07:36:12.309Z,20.8
2017-11-01T07:37:13.751Z,20.8
2017-11-01T07:38:15.568Z,20.8
2017-11-01T07:39:17.729Z,20.8
2017-11-01T07:40:19.558Z,20.7
2017-11-01T07:41:21.355Z,20.8
2017-11-01T07:42:22.835Z,20.8
2017-11-01T07:43:24.998Z,20.8
2017-11-01T07:44:26.806Z,20.8
2017-11-01T07:45:28.976Z,20.8
2017-11-01T07:46:31.139Z,20.8
2017-11-01T07:47:32.960Z,20.8
2017-11-01T07:48:34.432Z,20.8
2017-11-01T07:49:35.884Z,20.8
2017-11-01T07:50:37.683Z,20.8
2017-11-01T07:51:39.842Z,20.8
2017-11-01T07:52:41.663Z,20.8
2017-11-01T07:53:43.824Z,20.7
2017-11-01T07:54:45.624Z,20.8
2017-11-01T07:55:47.445Z,20.8
2017-11-01T07:56:49.606Z,20.8
2017-11-01T07:57:50.366Z,20.8
2017-11-01T07:58:52.529Z,20.8
2017-11-01T07:59:54.708Z,20.8
2017-11-01T08:00:56.520Z,20.8
2017-11-01T08:01:58.327Z,20.8
2017-11-01T08:03:00.488Z,20.8
2017-11-01T08:04:01.941Z,20.9
2017-11-01T08:05:04.101Z,20.9
2017-11-01T08:06:06.265Z,20.8
2017-11-01T08:07:07.739Z,20.8
2017-11-01T08:08:09.534Z,20.9
2017-11-01T08:09:10.648Z,20.8
2017-11-01T08:10:12.461Z,20.8
2017-11-01T08:11:14.624Z,20.8
2017-11-01T08:12:16.078Z,20.8
2017-11-01T08:13:17.897Z,20.8
2017-11-01T08:14:19.739Z,20.8
2017-11-01T08:15:21.898Z,20.8
2017-11-01T08:16:24.061Z,20.8
2017-11-01T08:17:25.516Z,20.9
2017-11-01T08:18:27.682Z,20.9
2017-11-01T08:19:29.843Z,20.7
2017-11-01T08:20:31.316Z,20.7
2017-11-01T08:21:33.483Z,20.9
2017-11-01T08:22:35.642Z,20.9
2017-11-01T08:23:37.460Z,20.9
2017-11-01T08:24:39.671Z,20.8
2017-11-01T08:25:41.861Z,20.8
2017-11-01T08:26:44.021Z,20.9
2017-11-01T08:27:45.134Z,20.9
2017-11-01T08:28:47.312Z,20.8
2017-11-01T08:29:49.466Z,20.8
2017-11-01T08:30:51.629Z,20.9
2017-11-01T08:31:53.788Z,20.9
2017-11-01T08:32:55.958Z,20.9
2017-11-01T08:33:58.118Z,20.9
2017-11-01T08:34:59.938Z,20.9
2017-11-01T08:36:01.760Z,20.9
2017-11-01T08:37:03.236Z,20.9
2017-11-01T08:38:05.400Z,20.8
2017-11-01T08:39:06.530Z,21
2017-11-01T08:40:08.697Z,20.9
2017-11-01T08:41:10.862Z,20.8
2017-11-01T08:42:13.029Z,20.9
2017-11-01T08:43:14.825Z,20.9
2017-11-01T08:44:16.623Z,20.9
2017-11-01T08:45:18.785Z,20.9
2017-11-01T08:46:20.954Z,20.9
2017-11-01T08:47:22.401Z,20.9
2017-11-01T08:48:23.855Z,20.9
2017-11-01T08:49:26.020Z,21
2017-11-01T08:50:27.837Z,20.9
2017-11-01T08:51:29.643Z,20.9
2017-11-01T08:52:31.121Z,21
2017-11-01T08:53:32.916Z,20.9
2017-11-01T08:54:35.079Z,20.9
2017-11-01T08:55:36.558Z,20.9
2017-11-01T08:56:37.663Z,20.9
2017-11-01T08:57:39.121Z,20.9
2017-11-01T08:58:40.941Z,20.9
2017-11-01T08:59:43.104Z,20.9
2017-11-01T09:00:44.214Z,20.9
2017-11-01T09:01:45.670Z,21
2017-11-01T09:02:47.467Z,20.9
2017-11-01T09:03:49.286Z,20.9
2017-11-01T09:04:50.759Z,20.9
2017-11-01T09:05:52.926Z,20.9
2017-11-01T09:06:54.742Z,20.9
2017-11-01T09:07:56.908Z,20.9
2017-11-01T09:08:58.364Z,20.9
2017-11-01T09:09:59.856Z,20.9
2017-11-01T09:11:02.013Z,20.9
2017-11-01T09:12:04.167Z,21
2017-11-01T09:13:05.619Z,20.9
2017-11-01T09:14:07.440Z,20.9
2017-11-01T09:15:08.948Z,21
2017-11-01T09:16:10.423Z,20.9
2017-11-01T09:17:12.248Z,21
2017-11-01T09:18:14.409Z,21
2017-11-01T09:19:15.177Z,21
2017-11-01T09:20:17.005Z,21
2017-11-01T09:21:19.166Z,20.9
2017-11-01T09:22:20.613Z,21
2017-11-01T09:23:22.433Z,20.9
2017-11-01T09:24:24.249Z,21
2017-11-01T09:25:26.414Z,20.9
2017-11-01T09:26:27.866Z,21
2017-11-01T09:27:28.979Z,21
2017-11-01T09:28:30.086Z,21
2017-11-01T09:29:31.886Z,20.9
2017-11-01T09:30:33.735Z,21
2017-11-01T09:31:35.551Z,21
2017-11-01T09:32:36.683Z,21.1
2017-11-01T09:33:38.846Z,21
2017-11-01T09:34:40.320Z,21.1
2017-11-01T09:35:42.118Z,21.1
2017-11-01T09:36:44.280Z,21.1
2017-11-01T09:37:46.081Z,21.1
2017-11-01T09:38:47.557Z,21.1
2017-11-01T09:39:49.723Z,21.2
2017-11-01T09:40:51.178Z,21.2
2017-11-01T09:41:52.649Z,21
2017-11-01T09:42:54.450Z,21.2
2017-11-01T09:43:55.922Z,21.3
2017-11-01T09:44:58.091Z,21.1
2017-11-01T09:45:59.882Z,21.1
2017-11-01T09:47:02.043Z,21.2
2017-11-01T09:48:03.866Z,21
2017-11-01T09:49:05.688Z,21.2
2017-11-01T09:50:07.510Z,21.1
2017-11-01T09:51:09.328Z,21.2
2017-11-01T09:52:10.783Z,21.1
2017-11-01T09:53:12.603Z,21.1
2017-11-01T09:54:13.730Z,21.2
2017-11-01T09:55:15.550Z,21.2
2017-11-01T09:56:17.368Z,21.2
2017-11-01T09:57:18.502Z,21.3
2017-11-01T09:58:20.322Z,21.3
2017-11-01T09:59:22.485Z,21.3
2017-11-01T10:00:24.307Z,21.3
2017-11-01T10:01:26.110Z,21.3
2017-11-01T10:02:27.927Z,21.3
2017-11-01T10:03:30.089Z,21.3
2017-11-01T10:04:31.905Z,21.3
2017-11-01T10:05:33.385Z,21.3
2017-11-01T10:06:34.835Z,21.4
2017-11-01T10:07:36.996Z,21.3
2017-11-01T10:08:39.173Z,21.4
2017-11-01T10:09:41.335Z,21.4
2017-11-01T10:10:43.153Z,21.4
2017-11-01T10:11:45.315Z,21.4
2017-11-01T10:12:46.425Z,21.4
2017-11-01T10:13:48.245Z,21.5
2017-11-01T10:14:50.411Z,21.4
2017-11-01T10:15:51.885Z,21.4
2017-11-01T10:16:53.703Z,21.4
2017-11-01T10:17:55.179Z,21.4
2017-11-01T10:18:56.999Z,21.4
2017-11-01T10:19:58.476Z,21.4
2017-11-01T10:21:00.738Z,21.4
2017-11-01T10:22:02.557Z,21.5
2017-11-01T10:23:03.671Z,21.4
2017-11-01T10:24:05.489Z,21.4
2017-11-01T10:25:06.963Z,21.5
2017-11-01T10:26:08.781Z,21.4
2017-11-01T10:27:10.605Z,21.5
2017-11-01T10:28:12.422Z,21.5
2017-11-01T10:29:14.590Z,21.5
2017-11-01T10:30:16.083Z,21.5
2017-11-01T10:31:17.183Z,21.5
2017-11-01T10:32:19.347Z,21.5
2017-11-01T10:33:21.517Z,21.5
2017-11-01T10:34:23.672Z,21.4
2017-11-01T10:35:25.224Z,21.5
2017-11-01T10:36:27.021Z,21.5
2017-11-01T10:37:28.848Z,21.6
2017-11-01T10:38:30.318Z,21.5
2017-11-01T10:39:31.795Z,21.6
2017-11-01T10:40:33.614Z,21.6
2017-11-01T10:41:35.431Z,21.6
2017-11-01T10:42:37.238Z,21.6
2017-11-01T10:43:39.049Z,21.6
2017-11-01T10:44:40.158Z,21.6
2017-11-01T10:45:41.980Z,21.6
2017-11-01T10:46:44.140Z,21.6
2017-11-01T10:47:45.611Z,21.6
2017-11-01T10:48:47.774Z,21.5
2017-11-01T10:49:49.597Z,21.6
2017-11-01T10:50:51.414Z,21.5
2017-11-01T10:51:53.231Z,21.6
2017-11-01T10:52:54.717Z,21.7
2017-11-01T10:53:56.535Z,21.6
2017-11-01T10:54:58.375Z,21.7
2017-11-01T10:56:00.194Z,21.7
2017-11-01T10:57:02.011Z,21.7
2017-11-01T10:58:03.830Z,21.6
2017-11-01T10:59:05.305Z,21.7
2017-11-01T11:00:07.123Z,21.6
2017-11-01T11:01:09.290Z,21.7
2017-11-01T11:02:10.744Z,21.7
2017-11-01T11:03:12.566Z,21.7
2017-11-01T11:04:14.386Z,21.7
2017-11-01T11:05:15.496Z,21.7
2017-11-01T11:06:17.676Z,21.7
2017-11-01T11:07:19.494Z,21.7
2017-11-01T11:08:20.622Z,21.7
2017-11-01T11:09:21.728Z,21.7
2017-11-01T11:10:23.890Z,21.7
2017-11-01T11:11:25.733Z,21.7
2017-11-01T11:12:27.253Z,21.7
2017-11-01T11:13:28.701Z,21.7
2017-11-01T11:14:29.464Z,21.6
2017-11-01T11:15:30.920Z,21.7
2017-11-01T11:16:32.403Z,21.8
2017-11-01T11:17:34.220Z,21.7
2017-11-01T11:18:35.328Z,21.7
2017-11-01T11:19:37.146Z,21.8
2017-11-01T11:20:39.359Z,21.7
2017-11-01T11:21:41.156Z,21.7
2017-11-01T11:22:42.615Z,21.7
2017-11-01T11:23:44.786Z,21.8
2017-11-01T11:24:46.261Z,21.8
2017-11-01T11:25:48.082Z,21.7
2017-11-01T11:26:49.894Z,21.7
2017-11-01T11:27:51.341Z,21.8
2017-11-01T11:28:52.821Z,21.7
2017-11-01T11:29:54.278Z,21.7
2017-11-01T11:30:56.151Z,21.8
2017-11-01T11:31:57.979Z,21.7
2017-11-01T11:32:59.797Z,21.8
2017-11-01T11:34:01.615Z,21.8
2017-11-01T11:35:03.439Z,21.8
2017-11-01T11:36:05.261Z,21.7
2017-11-01T11:37:06.405Z,21.7
2017-11-01T11:38:08.210Z,21.7
2017-11-01T11:39:09.685Z,21.8
2017-11-01T11:40:11.514Z,21.8
2017-11-01T11:41:12.967Z,21.8
2017-11-01T11:42:14.792Z,21.8
2017-11-01T11:43:16.954Z,21.8
2017-11-01T11:44:18.434Z,21.8
2017-11-01T11:45:20.255Z,21.8
2017-11-01T11:46:22.419Z,21.8
2017-11-01T11:47:24.245Z,21.8
2017-11-01T11:48:26.063Z,21.8
2017-11-01T11:49:27.867Z,21.9
2017-11-01T11:50:30.125Z,21.8
2017-11-01T11:51:32.288Z,21.8
2017-11-01T11:52:33.400Z,21.9
2017-11-01T11:53:34.876Z,21.9
2017-11-01T11:54:37.041Z,21.9
2017-11-01T11:55:38.860Z,21.8
2017-11-01T11:56:40.693Z,21.9
2017-11-01T11:57:42.511Z,21.9
2017-11-01T11:58:44.326Z,21.8
2017-11-01T11:59:46.493Z,21.8
2017-11-01T12:00:48.313Z,21.8
2017-11-01T12:01:50.136Z,21.7
2017-11-01T12:02:51.956Z,21.8
2017-11-01T12:03:53.412Z,21.9
2017-11-01T12:04:54.862Z,21.9
2017-11-01T12:05:56.334Z,21.8
2017-11-01T12:06:58.135Z,21.8
2017-11-01T12:07:59.613Z,21.9
2017-11-01T12:09:01.778Z,21.8
2017-11-01T12:10:03.597Z,21.9
2017-11-01T12:11:04.726Z,21.9
2017-11-01T12:12:06.204Z,21.9
2017-11-01T12:13:08.024Z,21.9
2017-11-01T12:14:10.187Z,21.9
2017-11-01T12:15:11.990Z,21.9
2017-11-01T12:16:13.810Z,21.9
2017-11-01T12:17:15.976Z,21.9
2017-11-01T12:18:17.086Z,21.8
2017-11-01T12:19:19.298Z,21.8
2017-11-01T12:20:20.750Z,21.9
2017-11-01T12:21:22.912Z,21.8
2017-11-01T12:22:25.078Z,21.8
2017-11-01T12:23:26.879Z,21.8
2017-11-01T12:24:28.698Z,21.9
2017-11-01T12:25:30.153Z,21.9
2017-11-01T12:26:31.972Z,21.9
2017-11-01T12:27:33.773Z,21.9
2017-11-01T12:28:35.572Z,21.8
2017-11-01T12:29:37.392Z,21.8
2017-11-01T12:30:38.887Z,21.8
2017-11-01T12:31:40.329Z,21.9
2017-11-01T12:32:41.802Z,21.9
2017-11-01T12:33:43.604Z,21.8
2017-11-01T12:34:45.071Z,21.8
2017-11-01T12:35:46.903Z,21.8
2017-11-01T12:36:48.033Z,21.8
2017-11-01T12:37:50.199Z,21.8
2017-11-01T12:38:52.017Z,21.9
2017-11-01T12:39:53.826Z,21.8
2017-11-01T12:40:55.278Z,21.9
2017-11-01T12:41:57.096Z,21.8
2017-11-01T12:42:59.263Z,21.9
2017-11-01T12:44:01.435Z,21.9
2017-11-01T12:45:03.597Z,21.9
2017-11-01T12:46:05.417Z,21.9
2017-11-01T12:47:07.600Z,21.8
2017-11-01T12:48:09.763Z,21.9
2017-11-01T12:49:11.590Z,21.9
2017-11-01T12:50:13.408Z,21.8
2017-11-01T12:51:14.861Z,21.9
2017-11-01T12:52:17.029Z,21.9
2017-11-01T12:53:18.847Z,21.8
2017-11-01T12:54:20.306Z,21.8
2017-11-01T12:55:21.780Z,21.8
2017-11-01T12:56:23.600Z,21.9
2017-11-01T12:57:25.422Z,21.9
2017-11-01T12:58:27.239Z,21.9
2017-11-01T12:59:29.060Z,21.8
2017-11-01T13:00:30.863Z,22
2017-11-01T13:01:32.682Z,21.9
2017-11-01T13:02:34.843Z,21.9
2017-11-01T13:03:36.680Z,21.8
2017-11-01T13:04:38.139Z,21.8
2017-11-01T13:05:39.939Z,21.9
2017-11-01T13:06:41.758Z,21.9
2017-11-01T13:07:43.211Z,21.9
2017-11-01T13:08:44.320Z,21.9
2017-11-01T13:09:46.141Z,21.9
2017-11-01T13:10:48.026Z,21.9
2017-11-01T13:11:50.191Z,21.9
2017-11-01T13:12:52.010Z,21.9
2017-11-01T13:13:54.175Z,22
2017-11-01T13:14:56.001Z,21.9
2017-11-01T13:15:57.486Z,21.9
2017-11-01T13:16:59.307Z,21.9
2017-11-01T13:18:00.780Z,21.9
2017-11-01T13:19:02.255Z,21.9
2017-11-01T13:20:04.073Z,21.9
2017-11-01T13:21:05.889Z,21.9
2017-11-01T13:22:07.700Z,21.9
2017-11-01T13:23:09.516Z,22
2017-11-01T13:24:10.624Z,22
2017-11-01T13:25:12.443Z,21.9
2017-11-01T13:26:14.279Z,21.9
2017-11-01T13:27:15.724Z,21.9
2017-11-01T13:28:17.195Z,21.9
2017-11-01T13:29:19.351Z,21.9
2017-11-01T13:30:21.148Z,21.9
2017-11-01T13:31:22.952Z,21.8
2017-11-01T13:32:24.405Z,21.8
2017-11-01T13:33:26.233Z,21.9
2017-11-01T13:34:27.680Z,21.8
2017-11-01T13:35:29.845Z,21.9
2017-11-01T13:36:31.666Z,21.9
2017-11-01T13:37:33.828Z,21.9
2017-11-01T13:38:35.305Z,21.8
2017-11-01T13:39:37.468Z,21.9
2017-11-01T13:40:38.946Z,21.9
2017-11-01T13:41:40.397Z,21.9
2017-11-01T13:42:42.561Z,21.9
2017-11-01T13:43:44.034Z,21.9
2017-11-01T13:44:46.197Z,21.9
2017-11-01T13:45:48.015Z,21.9
2017-11-01T13:46:49.843Z,21.9
2017-11-01T13:47:51.295Z,21.9